sensor_id;sensor_type;location;lat;lon;timestamp;P1;durP1;ratioP1;P2;durP2;ratioP2
21034;SDS011;10676;50.848;3.272;2023-02-01T00:01:41;21.40;;;11.15;;
21034;SDS011;10676;50.848;3.272;2023-02-01T00:04:07;23.55;;;10.35;;
21034;SDS011;10676;50.848;3.272;2023-02-01T00:06:33;22.95;;;11.30;;
21034;SDS011;10676;50.848;3.272;2023-02-01T00:08:58;24.67;;;11.02;;
21034;SDS011;10676;50.848;3.272;2023-02-01T00:11:25;24.35;;;11.40;;
21034;SDS011;10676;50.848;3.272;2023-02-01T00:13:50;21.67;;;11.25;;
21034;SDS011;10676;50.848;3.272;2023-02-01T00:16:17;23.48;;;11.02;;
21034;SDS011;10676;50.848;3.272;2023-02-01T00:18:49;19.35;;;11.00;;
21034;SDS011;10676;50.848;3.272;2023-02-01T00:21:16;19.48;;;10.80;;
21034;SDS011;10676;50.848;3.272;2023-02-01T00:23:43;23.33;;;11.15;;
21034;SDS011;10676;50.848;3.272;2023-02-01T00:29:18;18.63;;;12.40;;
21034;SDS011;10676;50.848;3.272;2023-02-01T00:31:45;23.83;;;11.52;;
21034;SDS011;10676;50.848;3.272;2023-02-01T00:34:11;20.55;;;11.40;;
21034;SDS011;10676;50.848;3.272;2023-02-01T00:36:39;23.42;;;11.80;;
21034;SDS011;10676;50.848;3.272;2023-02-01T00:39:05;28.77;;;10.40;;
21034;SDS011;10676;50.848;3.272;2023-02-01T00:41:31;24.45;;;11.63;;
21034;SDS011;10676;50.848;3.272;2023-02-01T00:43:57;17.85;;;10.50;;
21034;SDS011;10676;50.848;3.272;2023-02-01T00:46:22;24.13;;;10.40;;
21034;SDS011;10676;50.848;3.272;2023-02-01T00:48:49;18.30;;;10.60;;
21034;SDS011;10676;50.848;3.272;2023-02-01T00:51:16;23.35;;;11.10;;
21034;SDS011;10676;50.848;3.272;2023-02-01T00:53:44;25.90;;;11.50;;
21034;SDS011;10676;50.848;3.272;2023-02-01T00:56:11;21.05;;;11.68;;
21034;SDS011;10676;50.848;3.272;2023-02-01T00:58:36;20.92;;;11.80;;
21034;SDS011;10676;50.848;3.272;2023-02-01T01:01:06;19.48;;;11.00;;
21034;SDS011;10676;50.848;3.272;2023-02-01T01:03:33;18.77;;;11.05;;
21034;SDS011;10676;50.848;3.272;2023-02-01T01:06:02;28.42;;;11.60;;
21034;SDS011;10676;50.848;3.272;2023-02-01T01:08:30;25.67;;;14.50;;
21034;SDS011;10676;50.848;3.272;2023-02-01T01:10:56;16.88;;;11.02;;
21034;SDS011;10676;50.848;3.272;2023-02-01T01:13:22;18.80;;;11.48;;
21034;SDS011;10676;50.848;3.272;2023-02-01T01:15:48;22.97;;;10.57;;
21034;SDS011;10676;50.848;3.272;2023-02-01T01:18:13;24.08;;;11.93;;
21034;SDS011;10676;50.848;3.272;2023-02-01T01:20:40;19.25;;;11.30;;
21034;SDS011;10676;50.848;3.272;2023-02-01T01:23:06;21.40;;;10.75;;
21034;SDS011;10676;50.848;3.272;2023-02-01T01:25:36;13.73;;;10.32;;
21034;SDS011;10676;50.848;3.272;2023-02-01T01:28:03;17.38;;;11.10;;
21034;SDS011;10676;50.848;3.272;2023-02-01T01:30:29;22.27;;;12.35;;
21034;SDS011;10676;50.848;3.272;2023-02-01T01:32:55;21.67;;;12.10;;
21034;SDS011;10676;50.848;3.272;2023-02-01T01:35:20;18.02;;;12.38;;
21034;SDS011;10676;50.848;3.272;2023-02-01T01:37:46;25.17;;;12.98;;
21034;SDS011;10676;50.848;3.272;2023-02-01T01:40:12;26.40;;;12.88;;
21034;SDS011;10676;50.848;3.272;2023-02-01T01:42:41;23.30;;;11.67;;
21034;SDS011;10676;50.848;3.272;2023-02-01T01:45:28;27.10;;;12.18;;
21034;SDS011;10676;50.848;3.272;2023-02-01T01:47:59;16.27;;;11.33;;
21034;SDS011;10676;50.848;3.272;2023-02-01T01:50:35;24.25;;;12.18;;
21034;SDS011;10676;50.848;3.272;2023-02-01T01:53:08;17.95;;;12.43;;
21034;SDS011;10676;50.848;3.272;2023-02-01T01:55:37;23.70;;;11.15;;
21034;SDS011;10676;50.848;3.272;2023-02-01T01:58:08;16.63;;;11.00;;
21034;SDS011;10676;50.848;3.272;2023-02-01T02:00:37;16.30;;;11.52;;
21034;SDS011;10676;50.848;3.272;2023-02-01T02:03:07;24.42;;;12.27;;
21034;SDS011;10676;50.848;3.272;2023-02-01T02:05:44;22.73;;;11.15;;
21034;SDS011;10676;50.848;3.272;2023-02-01T02:08:12;26.00;;;13.15;;
21034;SDS011;10676;50.848;3.272;2023-02-01T02:10:38;18.40;;;13.30;;
21034;SDS011;10676;50.848;3.272;2023-02-01T02:13:23;20.80;;;11.77;;
21034;SDS011;10676;50.848;3.272;2023-02-01T02:16:14;18.10;;;12.52;;
21034;SDS011;10676;50.848;3.272;2023-02-01T02:27:17;19.90;;;11.50;;
21034;SDS011;10676;50.848;3.272;2023-02-01T02:35:10;22.03;;;13.47;;
21034;SDS011;10676;50.848;3.272;2023-02-01T02:43:37;31.53;;;14.20;;
21034;SDS011;10676;50.848;3.272;2023-02-01T02:46:36;26.70;;;15.40;;
21034;SDS011;10676;50.848;3.272;2023-02-01T02:52:16;21.33;;;13.10;;
21034;SDS011;10676;50.848;3.272;2023-02-01T02:55:03;23.27;;;13.33;;
21034;SDS011;10676;50.848;3.272;2023-02-01T02:57:32;24.17;;;13.10;;
21034;SDS011;10676;50.848;3.272;2023-02-01T03:00:20;18.07;;;11.43;;
21034;SDS011;10676;50.848;3.272;2023-02-01T03:03:08;18.83;;;11.47;;
21034;SDS011;10676;50.848;3.272;2023-02-01T03:05:52;19.93;;;12.03;;
21034;SDS011;10676;50.848;3.272;2023-02-01T03:08:22;18.47;;;11.87;;
21034;SDS011;10676;50.848;3.272;2023-02-01T03:16:09;24.17;;;13.20;;
21034;SDS011;10676;50.848;3.272;2023-02-01T03:18:51;18.07;;;11.70;;
21034;SDS011;10676;50.848;3.272;2023-02-01T03:21:23;21.37;;;12.27;;
21034;SDS011;10676;50.848;3.272;2023-02-01T03:23:53;18.40;;;12.10;;
21034;SDS011;10676;50.848;3.272;2023-02-01T03:26:23;23.33;;;13.37;;
21034;SDS011;10676;50.848;3.272;2023-02-01T03:28:56;20.27;;;12.87;;
21034;SDS011;10676;50.848;3.272;2023-02-01T03:31:26;23.27;;;12.47;;
21034;SDS011;10676;50.848;3.272;2023-02-01T03:33:53;22.73;;;13.17;;
21034;SDS011;10676;50.848;3.272;2023-02-01T03:44:09;25.13;;;12.80;;
21034;SDS011;10676;50.848;3.272;2023-02-01T03:46:57;21.57;;;11.83;;
21034;SDS011;10676;50.848;3.272;2023-02-01T03:49:26;15.97;;;12.57;;
21034;SDS011;10676;50.848;3.272;2023-02-01T03:51:54;26.07;;;12.60;;
21034;SDS011;10676;50.848;3.272;2023-02-01T03:54:24;20.27;;;11.97;;
21034;SDS011;10676;50.848;3.272;2023-02-01T03:56:52;19.50;;;12.43;;
21034;SDS011;10676;50.848;3.272;2023-02-01T03:59:20;29.33;;;12.73;;
21034;SDS011;10676;50.848;3.272;2023-02-01T04:01:46;31.60;;;12.50;;
21034;SDS011;10676;50.848;3.272;2023-02-01T04:04:11;21.83;;;11.27;;
21034;SDS011;10676;50.848;3.272;2023-02-01T04:06:45;22.50;;;10.70;;
21034;SDS011;10676;50.848;3.272;2023-02-01T04:09:11;22.57;;;10.90;;
21034;SDS011;10676;50.848;3.272;2023-02-01T04:11:37;24.33;;;11.70;;
21034;SDS011;10676;50.848;3.272;2023-02-01T04:14:02;29.97;;;10.93;;
21034;SDS011;10676;50.848;3.272;2023-02-01T04:16:29;23.13;;;12.03;;
21034;SDS011;10676;50.848;3.272;2023-02-01T04:18:56;17.27;;;10.97;;
21034;SDS011;10676;50.848;3.272;2023-02-01T04:21:23;21.13;;;10.90;;
21034;SDS011;10676;50.848;3.272;2023-02-01T04:23:52;25.50;;;11.63;;
21034;SDS011;10676;50.848;3.272;2023-02-01T04:26:18;24.53;;;11.30;;
21034;SDS011;10676;50.848;3.272;2023-02-01T04:28:44;25.93;;;10.87;;
21034;SDS011;10676;50.848;3.272;2023-02-01T04:31:17;20.80;;;11.20;;
21034;SDS011;10676;50.848;3.272;2023-02-01T04:33:50;24.73;;;10.93;;
21034;SDS011;10676;50.848;3.272;2023-02-01T04:36:19;22.87;;;11.57;;
21034;SDS011;10676;50.848;3.272;2023-02-01T04:38:47;25.97;;;12.10;;
21034;SDS011;10676;50.848;3.272;2023-02-01T04:41:13;25.60;;;12.43;;
21034;SDS011;10676;50.848;3.272;2023-02-01T04:43:40;26.57;;;11.23;;
21034;SDS011;10676;50.848;3.272;2023-02-01T04:46:06;23.50;;;11.17;;
21034;SDS011;10676;50.848;3.272;2023-02-01T04:48:31;23.83;;;11.33;;
21034;SDS011;10676;50.848;3.272;2023-02-01T04:50:57;25.07;;;11.60;;
21034;SDS011;10676;50.848;3.272;2023-02-01T04:53:23;21.37;;;11.27;;
21034;SDS011;10676;50.848;3.272;2023-02-01T04:55:49;25.40;;;11.03;;
21034;SDS011;10676;50.848;3.272;2023-02-01T04:58:15;19.30;;;10.87;;
21034;SDS011;10676;50.848;3.272;2023-02-01T05:00:41;20.37;;;10.60;;
21034;SDS011;10676;50.848;3.272;2023-02-01T05:03:06;24.10;;;9.70;;
21034;SDS011;10676;50.848;3.272;2023-02-01T05:05:32;23.50;;;11.47;;
21034;SDS011;10676;50.848;3.272;2023-02-01T05:07:57;22.20;;;10.77;;
21034;SDS011;10676;50.848;3.272;2023-02-01T05:10:23;27.20;;;11.70;;
21034;SDS011;10676;50.848;3.272;2023-02-01T05:12:49;28.93;;;11.60;;
21034;SDS011;10676;50.848;3.272;2023-02-01T05:15:34;17.90;;;10.50;;
21034;SDS011;10676;50.848;3.272;2023-02-01T05:17:59;22.83;;;11.37;;
21034;SDS011;10676;50.848;3.272;2023-02-01T05:20:25;22.50;;;11.70;;
21034;SDS011;10676;50.848;3.272;2023-02-01T05:22:50;29.53;;;12.13;;
21034;SDS011;10676;50.848;3.272;2023-02-01T05:25:16;29.83;;;12.43;;
21034;SDS011;10676;50.848;3.272;2023-02-01T05:27:42;24.03;;;13.23;;
21034;SDS011;10676;50.848;3.272;2023-02-01T05:30:08;22.43;;;11.93;;
21034;SDS011;10676;50.848;3.272;2023-02-01T05:32:34;28.97;;;11.90;;
21034;SDS011;10676;50.848;3.272;2023-02-01T05:35:00;25.50;;;12.93;;
21034;SDS011;10676;50.848;3.272;2023-02-01T05:37:26;22.83;;;12.20;;
21034;SDS011;10676;50.848;3.272;2023-02-01T05:39:52;27.77;;;15.63;;
21034;SDS011;10676;50.848;3.272;2023-02-01T05:42:18;26.83;;;17.87;;
21034;SDS011;10676;50.848;3.272;2023-02-01T05:44:43;21.77;;;12.33;;
21034;SDS011;10676;50.848;3.272;2023-02-01T05:47:09;26.53;;;12.07;;
21034;SDS011;10676;50.848;3.272;2023-02-01T05:49:35;29.17;;;15.80;;
21034;SDS011;10676;50.848;3.272;2023-02-01T05:52:01;23.83;;;15.13;;
21034;SDS011;10676;50.848;3.272;2023-02-01T05:54:27;27.60;;;17.37;;
21034;SDS011;10676;50.848;3.272;2023-02-01T05:56:52;23.23;;;13.60;;
21034;SDS011;10676;50.848;3.272;2023-02-01T05:59:18;28.17;;;15.73;;
21034;SDS011;10676;50.848;3.272;2023-02-01T06:01:44;29.00;;;14.63;;
21034;SDS011;10676;50.848;3.272;2023-02-01T06:04:09;30.73;;;16.03;;
21034;SDS011;10676;50.848;3.272;2023-02-01T06:06:35;17.33;;;15.40;;
21034;SDS011;10676;50.848;3.272;2023-02-01T06:09:02;26.70;;;16.13;;
21034;SDS011;10676;50.848;3.272;2023-02-01T06:11:28;26.90;;;16.60;;
21034;SDS011;10676;50.848;3.272;2023-02-01T06:13:54;23.07;;;13.97;;
21034;SDS011;10676;50.848;3.272;2023-02-01T06:16:20;21.93;;;12.83;;
21034;SDS011;10676;50.848;3.272;2023-02-01T06:18:47;25.70;;;13.83;;
21034;SDS011;10676;50.848;3.272;2023-02-01T06:21:13;28.20;;;14.03;;
21034;SDS011;10676;50.848;3.272;2023-02-01T06:23:40;27.37;;;14.10;;
21034;SDS011;10676;50.848;3.272;2023-02-01T06:26:07;22.93;;;12.30;;
21034;SDS011;10676;50.848;3.272;2023-02-01T06:28:33;28.57;;;12.47;;
21034;SDS011;10676;50.848;3.272;2023-02-01T06:31:03;29.80;;;11.20;;
21034;SDS011;10676;50.848;3.272;2023-02-01T06:33:31;25.23;;;11.03;;
21034;SDS011;10676;50.848;3.272;2023-02-01T06:35:59;34.07;;;13.80;;
21034;SDS011;10676;50.848;3.272;2023-02-01T06:38:26;20.90;;;12.20;;
21034;SDS011;10676;50.848;3.272;2023-02-01T06:40:53;26.10;;;11.90;;
21034;SDS011;10676;50.848;3.272;2023-02-01T06:43:20;23.33;;;12.63;;
21034;SDS011;10676;50.848;3.272;2023-02-01T06:45:50;25.80;;;11.00;;
21034;SDS011;10676;50.848;3.272;2023-02-01T06:48:16;25.47;;;13.50;;
21034;SDS011;10676;50.848;3.272;2023-02-01T06:50:42;21.40;;;10.80;;
21034;SDS011;10676;50.848;3.272;2023-02-01T06:53:08;23.73;;;13.00;;
21034;SDS011;10676;50.848;3.272;2023-02-01T06:55:34;24.43;;;14.87;;
21034;SDS011;10676;50.848;3.272;2023-02-01T06:58:00;26.93;;;12.67;;
21034;SDS011;10676;50.848;3.272;2023-02-01T07:00:27;18.90;;;13.07;;
21034;SDS011;10676;50.848;3.272;2023-02-01T07:02:53;29.40;;;15.10;;
21034;SDS011;10676;50.848;3.272;2023-02-01T07:05:19;21.87;;;12.93;;
21034;SDS011;10676;50.848;3.272;2023-02-01T07:07:46;31.17;;;14.47;;
21034;SDS011;10676;50.848;3.272;2023-02-01T07:10:12;29.37;;;13.90;;
21034;SDS011;10676;50.848;3.272;2023-02-01T07:12:38;21.37;;;13.97;;
21034;SDS011;10676;50.848;3.272;2023-02-01T07:15:04;32.23;;;15.83;;
21034;SDS011;10676;50.848;3.272;2023-02-01T07:17:30;26.17;;;13.50;;
21034;SDS011;10676;50.848;3.272;2023-02-01T07:19:56;27.10;;;15.50;;
21034;SDS011;10676;50.848;3.272;2023-02-01T07:22:24;23.77;;;13.87;;
21034;SDS011;10676;50.848;3.272;2023-02-01T07:24:50;24.20;;;13.50;;
21034;SDS011;10676;50.848;3.272;2023-02-01T07:27:16;18.97;;;11.33;;
21034;SDS011;10676;50.848;3.272;2023-02-01T07:29:41;29.23;;;13.00;;
21034;SDS011;10676;50.848;3.272;2023-02-01T07:32:07;24.07;;;13.57;;
21034;SDS011;10676;50.848;3.272;2023-02-01T07:34:33;30.77;;;12.67;;
21034;SDS011;10676;50.848;3.272;2023-02-01T07:36:58;21.27;;;11.43;;
21034;SDS011;10676;50.848;3.272;2023-02-01T07:39:24;21.43;;;10.80;;
21034;SDS011;10676;50.848;3.272;2023-02-01T07:41:53;28.03;;;13.57;;
21034;SDS011;10676;50.848;3.272;2023-02-01T07:44:19;20.00;;;11.00;;
21034;SDS011;10676;50.848;3.272;2023-02-01T07:46:48;19.77;;;11.13;;
21034;SDS011;10676;50.848;3.272;2023-02-01T07:49:14;18.43;;;11.53;;
21034;SDS011;10676;50.848;3.272;2023-02-01T07:51:40;24.07;;;10.77;;
21034;SDS011;10676;50.848;3.272;2023-02-01T07:54:05;15.80;;;11.30;;
21034;SDS011;10676;50.848;3.272;2023-02-01T07:56:31;29.03;;;11.23;;
21034;SDS011;10676;50.848;3.272;2023-02-01T07:58:57;28.03;;;11.03;;
21034;SDS011;10676;50.848;3.272;2023-02-01T08:01:25;29.10;;;12.03;;
21034;SDS011;10676;50.848;3.272;2023-02-01T08:03:56;20.27;;;11.50;;
21034;SDS011;10676;50.848;3.272;2023-02-01T08:06:27;26.98;;;11.52;;
21034;SDS011;10676;50.848;3.272;2023-02-01T08:08:54;25.37;;;13.20;;
21034;SDS011;10676;50.848;3.272;2023-02-01T08:11:20;23.73;;;11.17;;
21034;SDS011;10676;50.848;3.272;2023-02-01T08:13:47;19.30;;;11.60;;
21034;SDS011;10676;50.848;3.272;2023-02-01T08:16:13;17.10;;;10.27;;
21034;SDS011;10676;50.848;3.272;2023-02-01T08:18:40;20.57;;;11.63;;
21034;SDS011;10676;50.848;3.272;2023-02-01T08:21:08;24.90;;;11.17;;
21034;SDS011;10676;50.848;3.272;2023-02-01T08:23:36;23.63;;;12.47;;
21034;SDS011;10676;50.848;3.272;2023-02-01T08:26:04;22.50;;;11.47;;
21034;SDS011;10676;50.848;3.272;2023-02-01T08:28:30;22.77;;;11.13;;
21034;SDS011;10676;50.848;3.272;2023-02-01T08:30:55;26.95;;;11.32;;
21034;SDS011;10676;50.848;3.272;2023-02-01T08:33:21;17.63;;;11.68;;
21034;SDS011;10676;50.848;3.272;2023-02-01T08:35:47;21.52;;;9.70;;
21034;SDS011;10676;50.848;3.272;2023-02-01T08:38:12;28.05;;;12.05;;
21034;SDS011;10676;50.848;3.272;2023-02-01T08:40:38;22.52;;;10.90;;
21034;SDS011;10676;50.848;3.272;2023-02-01T08:43:06;24.67;;;15.25;;
21034;SDS011;10676;50.848;3.272;2023-02-01T08:45:32;25.10;;;16.60;;
21034;SDS011;10676;50.848;3.272;2023-02-01T08:47:58;18.88;;;11.93;;
21034;SDS011;10676;50.848;3.272;2023-02-01T08:50:24;23.27;;;14.27;;
21034;SDS011;10676;50.848;3.272;2023-02-01T08:52:50;19.77;;;13.50;;
21034;SDS011;10676;50.848;3.272;2023-02-01T08:55:17;22.13;;;12.93;;
21034;SDS011;10676;50.848;3.272;2023-02-01T08:57:43;18.52;;;11.85;;
21034;SDS011;10676;50.848;3.272;2023-02-01T09:00:10;16.02;;;12.50;;
21034;SDS011;10676;50.848;3.272;2023-02-01T09:02:38;20.23;;;12.75;;
21034;SDS011;10676;50.848;3.272;2023-02-01T09:05:04;21.67;;;13.35;;
21034;SDS011;10676;50.848;3.272;2023-02-01T09:07:31;21.50;;;18.13;;
21034;SDS011;10676;50.848;3.272;2023-02-01T09:09:57;518.38;;;264.58;;
21034;SDS011;10676;50.848;3.272;2023-02-01T09:12:25;20.75;;;18.55;;
21034;SDS011;10676;50.848;3.272;2023-02-01T09:14:52;1999.90;;;999.90;;
21034;SDS011;10676;50.848;3.272;2023-02-01T09:17:18;1999.90;;;999.90;;
21034;SDS011;10676;50.848;3.272;2023-02-01T09:19:43;1999.90;;;999.90;;
21034;SDS011;10676;50.848;3.272;2023-02-01T09:22:09;1999.90;;;999.90;;
21034;SDS011;10676;50.848;3.272;2023-02-01T09:24:34;1999.90;;;999.90;;
21034;SDS011;10676;50.848;3.272;2023-02-01T09:27:00;1999.90;;;999.90;;
21034;SDS011;10676;50.848;3.272;2023-02-01T09:29:26;1999.90;;;999.90;;
21034;SDS011;10676;50.848;3.272;2023-02-01T09:31:51;1999.90;;;999.90;;
21034;SDS011;10676;50.848;3.272;2023-02-01T09:34:17;1999.90;;;999.90;;
21034;SDS011;10676;50.848;3.272;2023-02-01T09:36:42;1999.90;;;999.90;;
21034;SDS011;10676;50.848;3.272;2023-02-01T09:39:08;1999.90;;;999.90;;
21034;SDS011;10676;50.848;3.272;2023-02-01T09:47:13;1999.90;;;999.90;;
21034;SDS011;10676;50.848;3.272;2023-02-01T09:52:23;1999.90;;;999.90;;
21034;SDS011;10676;50.848;3.272;2023-02-01T09:54:56;1999.90;;;999.90;;
21034;SDS011;10676;50.848;3.272;2023-02-01T09:57:41;1999.90;;;999.90;;
21034;SDS011;10676;50.848;3.272;2023-02-01T10:00:15;1999.90;;;999.90;;
21034;SDS011;10676;50.848;3.272;2023-02-01T10:02:45;1999.90;;;999.90;;
21034;SDS011;10676;50.848;3.272;2023-02-01T10:05:12;1999.90;;;999.90;;
21034;SDS011;10676;50.848;3.272;2023-02-01T10:08:01;1999.90;;;999.90;;
21034;SDS011;10676;50.848;3.272;2023-02-01T10:10:40;1999.90;;;999.90;;
21034;SDS011;10676;50.848;3.272;2023-02-01T10:13:23;1999.90;;;999.90;;
21034;SDS011;10676;50.848;3.272;2023-02-01T10:16:16;1999.90;;;999.90;;
21034;SDS011;10676;50.848;3.272;2023-02-01T10:21:41;1999.90;;;999.90;;
21034;SDS011;10676;50.848;3.272;2023-02-01T10:27:19;1999.90;;;999.90;;
21034;SDS011;10676;50.848;3.272;2023-02-01T10:29:49;1999.90;;;999.90;;
21034;SDS011;10676;50.848;3.272;2023-02-01T10:32:24;1999.90;;;999.90;;
21034;SDS011;10676;50.848;3.272;2023-02-01T10:35:00;1999.90;;;999.90;;
21034;SDS011;10676;50.848;3.272;2023-02-01T10:37:32;1999.90;;;999.90;;
21034;SDS011;10676;50.848;3.272;2023-02-01T10:40:00;1999.90;;;999.90;;
21034;SDS011;10676;50.848;3.272;2023-02-01T10:42:47;1999.90;;;999.90;;
21034;SDS011;10676;50.848;3.272;2023-02-01T10:45:16;1999.90;;;999.90;;
21034;SDS011;10676;50.848;3.272;2023-02-01T10:47:45;1999.90;;;999.90;;
21034;SDS011;10676;50.848;3.272;2023-02-01T10:56:06;1999.90;;;999.90;;
21034;SDS011;10676;50.848;3.272;2023-02-01T10:58:33;1999.90;;;999.90;;
21034;SDS011;10676;50.848;3.272;2023-02-01T11:01:02;1999.90;;;999.90;;
21034;SDS011;10676;50.848;3.272;2023-02-01T11:05:57;1999.90;;;999.90;;
21034;SDS011;10676;50.848;3.272;2023-02-01T11:08:23;1999.90;;;999.90;;
21034;SDS011;10676;50.848;3.272;2023-02-01T11:10:56;1999.90;;;999.90;;
21034;SDS011;10676;50.848;3.272;2023-02-01T11:13:27;1999.90;;;999.90;;
21034;SDS011;10676;50.848;3.272;2023-02-01T11:15:55;1999.90;;;999.90;;
21034;SDS011;10676;50.848;3.272;2023-02-01T11:18:28;1999.90;;;999.90;;
21034;SDS011;10676;50.848;3.272;2023-02-01T11:20:55;1999.90;;;999.90;;
21034;SDS011;10676;50.848;3.272;2023-02-01T11:23:22;1999.90;;;999.90;;
21034;SDS011;10676;50.848;3.272;2023-02-01T11:25:54;1999.90;;;999.90;;
21034;SDS011;10676;50.848;3.272;2023-02-01T11:28:32;1999.90;;;999.90;;
21034;SDS011;10676;50.848;3.272;2023-02-01T11:31:01;1999.90;;;999.90;;
21034;SDS011;10676;50.848;3.272;2023-02-01T11:33:34;1999.90;;;999.90;;
21034;SDS011;10676;50.848;3.272;2023-02-01T11:36:06;1999.90;;;999.90;;
21034;SDS011;10676;50.848;3.272;2023-02-01T11:38:34;1999.90;;;999.90;;
21034;SDS011;10676;50.848;3.272;2023-02-01T11:41:13;1999.90;;;999.90;;
21034;SDS011;10676;50.848;3.272;2023-02-01T11:43:58;1999.90;;;999.90;;
21034;SDS011;10676;50.848;3.272;2023-02-01T11:46:30;1999.90;;;999.90;;
21034;SDS011;10676;50.848;3.272;2023-02-01T11:49:13;1999.90;;;999.90;;
21034;SDS011;10676;50.848;3.272;2023-02-01T11:51:51;1999.90;;;999.90;;
21034;SDS011;10676;50.848;3.272;2023-02-01T11:54:38;1999.90;;;999.90;;
21034;SDS011;10676;50.848;3.272;2023-02-01T12:09:34;1999.90;;;999.90;;
21034;SDS011;10676;50.848;3.272;2023-02-01T12:22:55;1999.90;;;999.90;;
21034;SDS011;10676;50.848;3.272;2023-02-01T12:39:24;1999.90;;;999.90;;
21034;SDS011;10676;50.848;3.272;2023-02-01T12:47:36;1999.90;;;999.90;;
21034;SDS011;10676;50.848;3.272;2023-02-01T12:50:14;1999.90;;;999.90;;
21034;SDS011;10676;50.848;3.272;2023-02-01T12:52:48;1999.90;;;999.90;;
21034;SDS011;10676;50.848;3.272;2023-02-01T12:55:22;1999.90;;;999.90;;
21034;SDS011;10676;50.848;3.272;2023-02-01T12:57:51;1999.90;;;999.90;;
21034;SDS011;10676;50.848;3.272;2023-02-01T13:00:24;1999.90;;;999.90;;
21034;SDS011;10676;50.848;3.272;2023-02-01T13:02:56;1999.90;;;999.90;;
21034;SDS011;10676;50.848;3.272;2023-02-01T13:05:48;1999.90;;;999.90;;
21034;SDS011;10676;50.848;3.272;2023-02-01T13:08:24;1999.90;;;999.90;;
21034;SDS011;10676;50.848;3.272;2023-02-01T13:11:06;1999.90;;;999.90;;
21034;SDS011;10676;50.848;3.272;2023-02-01T13:18:41;1999.90;;;999.90;;
21034;SDS011;10676;50.848;3.272;2023-02-01T13:21:12;1999.90;;;999.90;;
21034;SDS011;10676;50.848;3.272;2023-02-01T13:23:40;1999.90;;;999.90;;
21034;SDS011;10676;50.848;3.272;2023-02-01T13:26:08;1999.90;;;999.90;;
21034;SDS011;10676;50.848;3.272;2023-02-01T13:29:08;1999.90;;;999.90;;
21034;SDS011;10676;50.848;3.272;2023-02-01T13:43:46;1999.90;;;999.90;;
21034;SDS011;10676;50.848;3.272;2023-02-01T13:45:55;1999.90;;;999.90;;
21034;SDS011;10676;50.848;3.272;2023-02-01T13:48:24;1999.90;;;999.90;;
21034;SDS011;10676;50.848;3.272;2023-02-01T13:50:57;1999.90;;;999.90;;
21034;SDS011;10676;50.848;3.272;2023-02-01T13:53:29;1999.90;;;999.90;;
21034;SDS011;10676;50.848;3.272;2023-02-01T13:56:03;1999.90;;;999.90;;
21034;SDS011;10676;50.848;3.272;2023-02-01T14:01:47;1999.90;;;999.90;;
21034;SDS011;10676;50.848;3.272;2023-02-01T14:03:52;1999.90;;;999.90;;
21034;SDS011;10676;50.848;3.272;2023-02-01T14:09:11;1999.90;;;999.90;;
21034;SDS011;10676;50.848;3.272;2023-02-01T14:19:23;1999.90;;;999.90;;
21034;SDS011;10676;50.848;3.272;2023-02-01T14:21:54;1999.90;;;999.90;;
21034;SDS011;10676;50.848;3.272;2023-02-01T14:26:52;1999.90;;;999.90;;
21034;SDS011;10676;50.848;3.272;2023-02-01T14:29:30;1999.90;;;999.90;;
21034;SDS011;10676;50.848;3.272;2023-02-01T14:56:04;1999.90;;;999.90;;
21034;SDS011;10676;50.848;3.272;2023-02-01T15:01:06;1999.90;;;999.90;;
21034;SDS011;10676;50.848;3.272;2023-02-01T15:09:20;1999.90;;;999.90;;
21034;SDS011;10676;50.848;3.272;2023-02-01T15:14:25;1999.90;;;999.90;;
21034;SDS011;10676;50.848;3.272;2023-02-01T15:16:53;1999.90;;;999.90;;
21034;SDS011;10676;50.848;3.272;2023-02-01T15:19:20;1999.90;;;999.90;;
21034;SDS011;10676;50.848;3.272;2023-02-01T15:21:48;1999.90;;;999.90;;
21034;SDS011;10676;50.848;3.272;2023-02-01T15:24:21;1999.90;;;999.90;;
21034;SDS011;10676;50.848;3.272;2023-02-01T15:26:48;1999.90;;;999.90;;
21034;SDS011;10676;50.848;3.272;2023-02-01T15:29:15;1999.90;;;999.90;;
21034;SDS011;10676;50.848;3.272;2023-02-01T15:31:44;1999.90;;;999.90;;
21034;SDS011;10676;50.848;3.272;2023-02-01T15:34:15;1999.90;;;999.90;;
21034;SDS011;10676;50.848;3.272;2023-02-01T15:36:41;1999.90;;;999.90;;
21034;SDS011;10676;50.848;3.272;2023-02-01T15:39:16;1999.90;;;999.90;;
21034;SDS011;10676;50.848;3.272;2023-02-01T15:41:45;1999.90;;;999.90;;
21034;SDS011;10676;50.848;3.272;2023-02-01T15:47:12;1999.90;;;999.90;;
21034;SDS011;10676;50.848;3.272;2023-02-01T15:49:41;1999.90;;;999.90;;
21034;SDS011;10676;50.848;3.272;2023-02-01T15:52:21;1999.90;;;999.90;;
21034;SDS011;10676;50.848;3.272;2023-02-01T15:54:58;1999.90;;;999.90;;
21034;SDS011;10676;50.848;3.272;2023-02-01T15:57:27;1999.90;;;999.90;;
21034;SDS011;10676;50.848;3.272;2023-02-01T16:00:05;1999.90;;;999.90;;
21034;SDS011;10676;50.848;3.272;2023-02-01T16:02:50;1999.90;;;999.90;;
21034;SDS011;10676;50.848;3.272;2023-02-01T16:10:51;1999.90;;;999.90;;
21034;SDS011;10676;50.848;3.272;2023-02-01T16:13:18;1999.90;;;999.90;;
21034;SDS011;10676;50.848;3.272;2023-02-01T16:15:45;1999.90;;;999.90;;
21034;SDS011;10676;50.848;3.272;2023-02-01T16:18:12;1999.90;;;999.90;;
21034;SDS011;10676;50.848;3.272;2023-02-01T16:20:39;1999.90;;;999.90;;
21034;SDS011;10676;50.848;3.272;2023-02-01T16:23:06;1999.90;;;999.90;;
21034;SDS011;10676;50.848;3.272;2023-02-01T16:25:32;1999.90;;;999.90;;
21034;SDS011;10676;50.848;3.272;2023-02-01T16:27:58;1999.90;;;999.90;;
21034;SDS011;10676;50.848;3.272;2023-02-01T16:30:24;1999.90;;;999.90;;
21034;SDS011;10676;50.848;3.272;2023-02-01T16:32:57;1999.90;;;999.90;;
21034;SDS011;10676;50.848;3.272;2023-02-01T16:35:25;1999.90;;;999.90;;
21034;SDS011;10676;50.848;3.272;2023-02-01T16:38:00;1999.90;;;999.90;;
21034;SDS011;10676;50.848;3.272;2023-02-01T16:40:36;1999.90;;;999.90;;
21034;SDS011;10676;50.848;3.272;2023-02-01T16:43:05;1999.90;;;999.90;;
21034;SDS011;10676;50.848;3.272;2023-02-01T16:45:40;1999.90;;;999.90;;
21034;SDS011;10676;50.848;3.272;2023-02-01T16:48:10;1999.90;;;999.90;;
21034;SDS011;10676;50.848;3.272;2023-02-01T16:50:57;1999.90;;;999.90;;
21034;SDS011;10676;50.848;3.272;2023-02-01T16:53:25;1999.90;;;999.90;;
21034;SDS011;10676;50.848;3.272;2023-02-01T16:55:53;1999.90;;;999.90;;
21034;SDS011;10676;50.848;3.272;2023-02-01T16:58:19;1999.90;;;999.90;;
21034;SDS011;10676;50.848;3.272;2023-02-01T17:00:46;1999.90;;;999.90;;
21034;SDS011;10676;50.848;3.272;2023-02-01T17:03:13;1999.90;;;999.90;;
21034;SDS011;10676;50.848;3.272;2023-02-01T17:05:41;1999.90;;;999.90;;
21034;SDS011;10676;50.848;3.272;2023-02-01T17:08:22;1999.90;;;999.90;;
21034;SDS011;10676;50.848;3.272;2023-02-01T17:10:53;1999.90;;;999.90;;
21034;SDS011;10676;50.848;3.272;2023-02-01T17:13:19;1999.90;;;999.90;;
21034;SDS011;10676;50.848;3.272;2023-02-01T17:15:49;1999.90;;;999.90;;
21034;SDS011;10676;50.848;3.272;2023-02-01T17:18:27;1999.90;;;999.90;;
21034;SDS011;10676;50.848;3.272;2023-02-01T17:20:56;1999.90;;;999.90;;